Manson, Washington
Current Conditions -  °F | °C
As of 1:55 PM on Thursday 27 Nov 2014 (Local Time) from KEAT Reporting Station
Overcast Overcast  
Wind Chill: 47°   Ceiling: 6500
Heat Index: 47°   Visibility: NA
Dew Point: 40°   Wind: 3mph
Humidity: 77%   Direction: 270°W
Pressure: 29.75"   Gusts: NA
Location:  47.88°N, 120.16°W
Report Text: KEAT 272155Z AUTO 27003KT OVC065 08/04 A2975 RMK AO2 SLP078 T00830044
Loading
Personal Weather Stations






























Interactive Weather Map New forecast layout! Learn more

10-Day Weather Forecast

Advertisements
Track Severe Weather on mobile